Summit, New Jersey
Current Conditions -  °F | °C
As of 10:45 AM on Sunday 23 Nov 2014 (Local Time) from KMMU Reporting Station
Broken Clouds Broken Clouds  
Wind Chill: 48°   Ceiling: 10000
Heat Index: 48°   Visibility: 10mi
Dew Point: 23°   Wind: 3mph
Humidity: 37%   Direction: 260°W
Pressure: 30.2"   Gusts: NA
Location:  40.72°N, 74.36°W
Report Text: KMMU 231545Z 26003KT 10SM SCT080 BKN100 BKN250 09/M05 A3020
Loading
Personal Weather Stations






























Interactive Weather Map New forecast layout! Learn more

10-Day Weather Forecast

Advertisements
Track Severe Weather on mobile